createdAt,value
2019-05-29T00:00:57.083Z,100069.58
2019-05-29T00:03:24.820Z,100075.88
2019-05-29T00:05:52.472Z,100078.05
2019-05-29T00:08:20.142Z,100087.60
2019-05-29T00:10:48.059Z,100092.98
2019-05-29T00:13:15.819Z,100097.70
2019-05-29T00:15:43.483Z,100095.39
2019-05-29T00:18:12.392Z,100108.25
2019-05-29T00:20:40.175Z,100116.51
2019-05-29T00:23:08.462Z,100111.63
2019-05-29T00:25:36.231Z,100120.45
2019-05-29T00:28:04.025Z,100122.88
2019-05-29T00:30:31.736Z,100122.88
2019-05-29T00:32:59.384Z,100125.48
2019-05-29T00:35:27.066Z,100131.61
2019-05-29T00:37:54.742Z,100133.83
2019-05-29T00:40:22.473Z,100139.46
2019-05-29T00:42:50.139Z,100139.58
2019-05-29T00:45:17.880Z,100143.17
2019-05-29T00:47:45.539Z,100156.56
2019-05-29T00:50:14.135Z,100152.19
2019-05-29T00:52:41.962Z,100154.77
2019-05-29T00:55:10.499Z,100160.95
2019-05-29T00:57:38.356Z,100169.28
2019-05-29T01:00:06.037Z,100170.57
2019-05-29T01:02:33.903Z,100173.25
2019-05-29T01:05:01.640Z,100171.62
2019-05-29T01:07:29.336Z,100175.70
2019-05-29T01:09:56.991Z,100180.97
2019-05-29T01:12:24.663Z,100189.84
2019-05-29T01:14:52.379Z,100198.98
2019-05-29T01:17:20.045Z,100196.55
2019-05-29T01:19:47.702Z,100200.34
2019-05-29T01:22:16.146Z,100204.83
2019-05-29T01:24:44.092Z,100200.34
2019-05-29T01:27:12.600Z,100213.40
2019-05-29T01:29:40.372Z,100217.45
2019-05-29T01:32:08.042Z,100226.23
2019-05-29T01:34:35.693Z,100229.27
2019-05-29T01:37:03.384Z,100230.43
2019-05-29T01:39:31.108Z,100234.28
2019-05-29T01:41:58.871Z,100240.09
2019-05-29T01:44:27.718Z,100239.10
2019-05-29T01:46:55.779Z,100245.70
2019-05-29T01:49:23.804Z,100260.58
2019-05-29T01:51:51.748Z,100265.47
2019-05-29T01:54:19.736Z,100260.98
2019-05-29T01:56:47.531Z,100272.23
2019-05-29T01:59:15.713Z,100276.77
2019-05-29T02:01:43.524Z,100282.78
2019-05-29T02:04:11.337Z,100290.89
2019-05-29T02:06:38.999Z,100290.66
2019-05-29T02:09:06.911Z,100298.86
2019-05-29T02:11:34.574Z,100302.26
2019-05-29T02:14:02.217Z,100306.28
2019-05-29T02:16:30.010Z,100309.98
2019-05-29T02:18:57.657Z,100309.13
2019-05-29T02:21:25.309Z,100302.63
2019-05-29T02:23:52.967Z,100298.86
2019-05-29T02:26:20.622Z,100310.32
2019-05-29T02:28:48.376Z,100316.13
2019-05-29T02:31:17.651Z,100327.34
2019-05-29T02:33:45.388Z,100327.73
2019-05-29T02:36:13.047Z,100332.17
2019-05-29T02:38:40.693Z,100334.52
2019-05-29T02:41:08.363Z,100342.77
2019-05-29T02:43:36.014Z,100343.43
2019-05-29T02:46:03.686Z,100355.36
2019-05-29T02:48:31.837Z,100350.50
2019-05-29T02:50:59.564Z,100360.00
2019-05-29T02:53:28.668Z,100371.62
2019-05-29T02:55:56.607Z,100376.27
2019-05-29T02:58:25.842Z,100377.74
2019-05-29T03:00:53.852Z,100390.99
2019-05-29T03:03:21.710Z,100389.70
2019-05-29T03:05:49.473Z,100399.13
2019-05-29T03:08:17.147Z,100394.35
2019-05-29T03:10:44.867Z,100411.33
2019-05-29T03:13:12.508Z,100410.52
2019-05-29T03:15:40.157Z,100420.98
2019-05-29T03:18:07.816Z,100420.37
2019-05-29T03:20:35.471Z,100427.46
2019-05-29T03:23:03.254Z,100434.52
2019-05-29T03:25:32.458Z,100437.96
2019-05-29T03:28:00.427Z,100447.03
2019-05-29T03:30:31.627Z,100447.70
2019-05-29T03:32:57.659Z,100460.73
2019-05-29T03:35:28.633Z,100461.59
2019-05-29T03:37:58.670Z,100462.23
2019-05-29T03:40:26.337Z,100468.91
2019-05-29T03:42:53.749Z,100468.56
2019-05-29T03:45:21.414Z,100469.69
2019-05-29T03:47:49.074Z,100477.30
2019-05-29T03:50:17.030Z,100478.15
2019-05-29T03:52:44.705Z,100488.17
2019-05-29T03:55:12.384Z,100494.09
2019-05-29T03:57:40.036Z,100494.22
2019-05-29T04:00:07.696Z,100499.80
2019-05-29T04:02:36.151Z,100499.02
2019-05-29T04:05:05.017Z,100494.52
2019-05-29T04:07:33.670Z,100505.36
2019-05-29T04:10:02.030Z,100515.64
2019-05-29T04:12:30.039Z,100512.77
2019-05-29T04:14:59.208Z,100521.84
2019-05-29T04:17:27.276Z,100526.14
2019-05-29T04:19:55.132Z,100538.33
2019-05-29T04:22:22.791Z,100544.19
2019-05-29T04:24:50.448Z,100553.69
2019-05-29T04:27:18.202Z,100554.28
2019-05-29T04:29:45.902Z,100564.08
2019-05-29T04:32:13.703Z,100571.14
2019-05-29T04:34:41.412Z,100575.28
2019-05-29T04:37:09.069Z,100575.84
2019-05-29T04:39:37.009Z,100587.77
2019-05-29T04:42:05.254Z,100586.30
2019-05-29T04:44:33.890Z,100595.92
2019-05-29T04:47:10.852Z,100595.30
2019-05-29T04:49:33.650Z,100597.76
2019-05-29T04:52:01.296Z,100607.00
2019-05-29T04:54:29.345Z,100602.62
2019-05-29T04:56:57.139Z,100602.91
2019-05-29T04:59:24.793Z,100609.63
2019-05-29T05:01:52.440Z,100612.81
2019-05-29T05:04:20.097Z,100611.56
2019-05-29T05:06:47.748Z,100622.66
2019-05-29T05:09:15.502Z,100623.31
2019-05-29T05:11:43.162Z,100623.56
2019-05-29T05:14:10.887Z,100628.80
2019-05-29T05:16:38.540Z,100631.42
2019-05-29T05:19:06.201Z,100638.61
2019-05-29T05:21:34.084Z,100647.50
2019-05-29T05:24:01.800Z,100649.20
2019-05-29T05:26:30.069Z,100653.52
2019-05-29T05:28:57.911Z,100655.63
2019-05-29T05:31:25.646Z,100658.22
2019-05-29T05:33:53.372Z,100662.89
2019-05-29T05:36:21.036Z,100663.39
2019-05-29T05:38:48.696Z,100667.82
2019-05-29T05:41:16.700Z,100677.05
2019-05-29T05:43:44.566Z,100681.39
2019-05-29T05:46:12.304Z,100683.67
2019-05-29T05:48:39.956Z,100694.04
2019-05-29T05:51:07.606Z,100691.84
2019-05-29T05:53:35.458Z,100696.95
2019-05-29T05:56:03.222Z,100697.84
2019-05-29T05:58:31.673Z,100704.55
2019-05-29T06:00:59.428Z,100703.66
2019-05-29T06:03:27.268Z,100704.64
2019-05-29T06:05:54.918Z,100706.33
2019-05-29T06:08:22.576Z,100714.29
2019-05-29T06:10:51.301Z,100717.59
2019-05-29T06:13:19.167Z,100718.64
2019-05-29T06:15:46.969Z,100716.74
2019-05-29T06:18:21.081Z,100721.72
2019-05-29T06:20:44.104Z,100715.95
2019-05-29T06:23:11.786Z,100720.47
2019-05-29T06:25:40.712Z,100728.22
2019-05-29T06:28:08.931Z,100730.48
2019-05-29T06:30:38.862Z,100732.14
2019-05-29T06:33:05.951Z,100733.06
2019-05-29T06:35:34.133Z,100738.65
2019-05-29T06:38:03.281Z,100738.65
2019-05-29T06:40:31.002Z,100735.34
2019-05-29T06:42:58.662Z,100743.94
2019-05-29T06:45:26.500Z,100741.08
2019-05-29T06:47:54.177Z,100741.16
2019-05-29T06:50:22.013Z,100743.68
2019-05-29T06:52:49.747Z,100752.72
2019-05-29T06:55:17.617Z,100754.02
2019-05-29T06:57:45.591Z,100761.09
2019-05-29T07:00:13.472Z,100753.50
2019-05-29T07:02:42.546Z,100765.13
2019-05-29T07:05:10.412Z,100763.83
2019-05-29T07:07:38.348Z,100767.81
2019-05-29T07:10:06.220Z,100770.19
2019-05-29T07:12:33.953Z,100775.45
2019-05-29T07:15:01.624Z,100774.62
2019-05-29T07:17:29.430Z,100777.80
2019-05-29T07:20:03.400Z,100779.46
2019-05-29T07:22:26.517Z,100787.47
2019-05-29T07:24:54.171Z,100791.40
2019-05-29T07:27:21.834Z,100792.72
2019-05-29T07:29:49.585Z,100795.48
2019-05-29T07:32:17.443Z,100802.39
2019-05-29T07:34:56.719Z,100798.02
2019-05-29T07:37:14.524Z,100804.06
2019-05-29T07:39:42.181Z,100795.18
2019-05-29T07:42:09.937Z,100801.80
2019-05-29T07:44:38.028Z,100813.56
2019-05-29T07:47:09.312Z,100812.86
2019-05-29T07:49:38.925Z,100813.56
2019-05-29T07:52:04.849Z,100814.44
2019-05-29T07:54:32.742Z,100823.03
2019-05-29T07:57:00.395Z,100823.73
2019-05-29T07:59:28.734Z,100825.91
2019-05-29T08:01:56.569Z,100828.39
2019-05-29T08:04:24.269Z,100832.09
2019-05-29T08:06:54.494Z,100830.66
2019-05-29T08:09:21.373Z,100838.83
2019-05-29T08:11:50.120Z,100840.50
2019-05-29T08:14:17.952Z,100842.11
2019-05-29T08:16:46.055Z,100845.55
2019-05-29T08:19:13.902Z,100839.38
2019-05-29T08:21:42.689Z,100849.89
2019-05-29T08:24:10.450Z,100849.89
2019-05-29T08:26:38.132Z,100852.46
2019-05-29T08:29:05.801Z,100848.64
2019-05-29T08:31:33.553Z,100847.22
2019-05-29T08:34:01.203Z,100853.99
2019-05-29T08:36:28.936Z,100852.92
2019-05-29T08:38:56.588Z,100856.68
2019-05-29T08:41:24.262Z,100858.14
2019-05-29T08:43:52.768Z,100858.67
2019-05-29T08:46:20.697Z,100868.45
2019-05-29T08:48:48.342Z,100868.10
2019-05-29T08:51:16.053Z,100868.10
2019-05-29T08:53:44.326Z,100872.03
2019-05-29T08:56:12.193Z,100866.25
2019-05-29T08:58:40.159Z,100873.41
2019-05-29T09:01:08.124Z,100885.09
2019-05-29T09:03:35.777Z,100881.55
2019-05-29T09:06:08.905Z,100888.77
2019-05-29T09:08:32.809Z,100895.02
2019-05-29T09:11:00.473Z,100894.66
2019-05-29T09:13:28.339Z,100899.90
2019-05-29T09:15:56.000Z,100895.00
2019-05-29T09:18:25.565Z,100891.61
2019-05-29T09:21:02.884Z,100900.61
2019-05-29T09:23:23.334Z,100902.81
2019-05-29T09:25:51.120Z,100904.27
2019-05-29T09:28:20.498Z,100904.14
2019-05-29T09:30:48.185Z,100902.22
2019-05-29T09:33:17.998Z,100910.57
2019-05-29T09:35:45.245Z,100906.20
2019-05-29T09:38:12.900Z,100903.86
2019-05-29T09:40:40.545Z,100907.17
2019-05-29T09:43:08.198Z,100917.84
2019-05-29T09:45:35.846Z,100915.88
2019-05-29T09:48:03.733Z,100912.67
2019-05-29T09:50:48.815Z,100916.78
2019-05-29T09:53:02.669Z,100925.62
2019-05-29T09:55:30.316Z,100922.77
2019-05-29T09:57:58.694Z,100916.95
2019-05-29T10:00:26.723Z,100913.17
2019-05-29T10:02:55.463Z,100920.27
2019-05-29T10:05:23.319Z,100923.12
2019-05-29T10:07:50.982Z,100922.98
2019-05-29T10:10:18.720Z,100920.14
2019-05-29T10:12:46.376Z,100913.19
2019-05-29T10:15:14.032Z,100913.52
2019-05-29T10:17:41.718Z,100919.59
2019-05-29T10:20:09.438Z,100916.38
2019-05-29T10:22:37.128Z,100920.03
2019-05-29T10:25:05.853Z,100924.05
2019-05-29T10:27:33.639Z,100917.38
2019-05-29T10:30:01.297Z,100926.23
2019-05-29T10:32:29.035Z,100922.73
2019-05-29T10:34:56.697Z,100941.35
2019-05-29T10:37:24.354Z,100940.72
2019-05-29T10:39:52.957Z,100943.23
2019-05-29T10:42:21.042Z,100947.06
2019-05-29T10:44:49.115Z,100944.71
2019-05-29T10:47:17.942Z,100943.53
2019-05-29T10:49:45.664Z,100947.80
2019-05-29T10:52:16.643Z,100945.52
2019-05-29T10:54:44.036Z,100946.09
2019-05-29T10:57:11.841Z,100951.94
2019-05-29T10:59:39.772Z,100943.93
2019-05-29T11:02:07.675Z,100948.84
2019-05-29T11:04:35.332Z,100941.23
2019-05-29T11:07:03.001Z,100949.08
2019-05-29T11:09:43.282Z,100943.89
2019-05-29T11:12:00.045Z,100943.45
2019-05-29T11:14:27.702Z,100949.33
2019-05-29T11:16:55.344Z,100942.91
2019-05-29T11:19:26.076Z,100945.19
2019-05-29T11:21:53.846Z,100948.84
2019-05-29T11:24:21.752Z,100944.55
2019-05-29T11:26:50.308Z,100943.65
2019-05-29T11:29:18.164Z,100947.01
2019-05-29T11:31:46.059Z,100949.55
2019-05-29T11:34:13.792Z,100947.58
2019-05-29T11:36:41.448Z,100946.08
2019-05-29T11:39:09.118Z,100953.72
2019-05-29T11:41:36.763Z,100943.62
2019-05-29T11:44:04.555Z,100942.62
2019-05-29T11:46:32.316Z,100951.38
2019-05-29T11:49:00.053Z,100949.34
2019-05-29T11:51:27.705Z,100954.53
2019-05-29T11:53:55.812Z,100949.19
2019-05-29T11:56:23.619Z,100947.78
2019-05-29T11:58:51.310Z,100944.59
2019-05-29T12:01:19.182Z,100944.36
2019-05-29T12:04:09.598Z,100947.28
2019-05-29T12:06:16.429Z,100943.44
2019-05-29T12:08:44.165Z,100943.52
2019-05-29T12:11:11.816Z,100946.42
2019-05-29T12:13:39.471Z,100937.39
2019-05-29T12:16:07.169Z,100942.44
2019-05-29T12:18:34.952Z,100944.15
2019-05-29T12:21:02.974Z,100942.56
2019-05-29T12:23:30.803Z,100953.38
2019-05-29T12:26:16.609Z,100952.34
2019-05-29T12:28:27.856Z,100952.64
2019-05-29T12:30:56.786Z,100950.67
2019-05-29T12:33:24.744Z,100954.53
2019-05-29T12:35:52.896Z,100956.77
2019-05-29T12:38:20.648Z,100955.11
2019-05-29T12:40:48.291Z,100951.56
2019-05-29T12:43:26.468Z,100947.50
2019-05-29T12:45:45.323Z,100950.67
2019-05-29T12:48:15.322Z,100939.86
2019-05-29T12:50:42.608Z,100950.33
2019-05-29T12:53:28.294Z,100950.79
2019-05-29T12:55:39.712Z,100947.62
2019-05-29T12:58:07.405Z,100945.61
2019-05-29T13:00:35.303Z,100936.16
2019-05-29T13:03:03.208Z,100936.16
2019-05-29T13:05:31.473Z,100947.62
2019-05-29T13:08:00.696Z,100933.72
2019-05-29T13:10:30.898Z,100944.53
2019-05-29T13:13:04.077Z,100948.66
2019-05-29T13:15:27.576Z,100950.35
2019-05-29T13:18:01.857Z,100950.55
2019-05-29T13:20:25.199Z,100952.09
2019-05-29T13:22:52.922Z,100949.04
2019-05-29T13:25:20.614Z,100942.28
2019-05-29T13:27:48.309Z,100945.80
2019-05-29T13:30:15.982Z,100942.23
2019-05-29T13:32:43.742Z,100954.78
2019-05-29T13:35:11.492Z,100952.57
2019-05-29T13:37:39.425Z,100947.47
2019-05-29T13:40:08.526Z,100952.02
2019-05-29T13:42:36.389Z,100950.62
2019-05-29T13:45:11.064Z,100942.75
2019-05-29T13:47:33.446Z,100943.23
2019-05-29T13:50:05.857Z,100935.84
2019-05-29T13:52:30.522Z,100935.84
2019-05-29T13:54:59.217Z,100920.97
2019-05-29T13:57:27.044Z,100931.45
2019-05-29T13:59:54.708Z,100942.45
2019-05-29T14:02:22.377Z,100941.93
2019-05-29T14:04:50.037Z,100941.53
2019-05-29T14:07:17.712Z,100941.53
2019-05-29T14:09:45.376Z,100943.57
2019-05-29T14:12:13.092Z,100947.31
2019-05-29T14:14:40.817Z,100947.50
2019-05-29T14:17:08.857Z,100942.93
2019-05-29T14:19:36.681Z,100942.93
2019-05-29T14:22:05.028Z,100945.48
2019-05-29T14:24:33.007Z,100949.37
2019-05-29T14:27:01.610Z,100955.77
2019-05-29T14:29:29.512Z,100953.25
2019-05-29T14:31:57.165Z,100948.00
2019-05-29T14:34:24.811Z,100940.89
2019-05-29T14:36:52.640Z,100944.12
2019-05-29T14:39:20.286Z,100953.09
2019-05-29T14:41:48.120Z,100946.28
2019-05-29T14:44:17.221Z,100940.92
2019-05-29T14:46:45.364Z,100945.30
2019-05-29T14:49:13.521Z,100942.27
2019-05-29T14:51:41.390Z,100948.02
2019-05-29T14:54:09.235Z,100948.69
2019-05-29T14:56:37.323Z,100948.18
2019-05-29T14:59:05.655Z,100948.18
2019-05-29T15:01:34.540Z,100954.27
2019-05-29T15:04:03.507Z,100952.42
2019-05-29T15:06:31.520Z,100949.69
2019-05-29T15:08:59.167Z,100947.86
2019-05-29T15:11:26.857Z,100942.19
2019-05-29T15:13:54.509Z,100940.30
2019-05-29T15:16:22.245Z,100948.06
2019-05-29T15:18:50.027Z,100944.58
2019-05-29T15:21:17.793Z,100937.52
2019-05-29T15:23:45.444Z,100937.52
2019-05-29T15:26:13.724Z,100946.97
2019-05-29T15:28:41.577Z,100948.16
2019-05-29T15:31:10.433Z,100945.25
2019-05-29T15:33:38.265Z,100955.11
2019-05-29T15:36:06.512Z,100952.92
2019-05-29T15:38:34.484Z,100941.63
2019-05-29T15:41:02.182Z,100945.95
2019-05-29T15:43:29.834Z,100944.58
2019-05-29T15:45:57.486Z,100943.75
2019-05-29T15:48:25.445Z,100941.58
2019-05-29T15:50:53.096Z,100934.23
2019-05-29T15:53:20.764Z,100950.53
2019-05-29T15:55:48.433Z,100944.94
2019-05-29T15:58:17.783Z,100952.70
2019-05-29T16:00:45.433Z,100952.98
2019-05-29T16:03:13.584Z,100958.12
2019-05-29T16:05:41.358Z,100955.64
2019-05-29T16:08:09.919Z,100960.50
2019-05-29T16:10:37.720Z,100958.84
2019-05-29T16:13:05.372Z,100962.55
2019-05-29T16:15:33.027Z,100958.52
2019-05-29T16:18:00.681Z,100958.31
2019-05-29T16:20:28.400Z,100959.84
2019-05-29T16:22:56.057Z,100959.84
2019-05-29T16:25:38.693Z,100974.20
2019-05-29T16:27:53.065Z,100977.08
2019-05-29T16:30:21.855Z,100972.36
2019-05-29T16:32:49.701Z,100977.78
2019-05-29T16:35:17.351Z,100974.92
2019-05-29T16:37:45.222Z,100982.52
2019-05-29T16:40:14.132Z,100979.11
2019-05-29T16:42:42.131Z,100979.16
2019-05-29T16:45:09.916Z,100984.17
2019-05-29T16:47:37.604Z,100982.98
2019-05-29T16:50:05.371Z,100985.16
2019-05-29T16:52:38.184Z,100986.81
2019-05-29T16:55:05.850Z,100985.16
2019-05-29T16:57:33.742Z,100994.56
2019-05-29T17:00:01.731Z,100988.47
2019-05-29T17:02:29.723Z,100994.06
2019-05-29T17:04:58.339Z,100995.66
2019-05-29T17:07:26.114Z,100994.27
2019-05-29T17:09:53.775Z,100999.95
2019-05-29T17:12:22.496Z,101006.67
2019-05-29T17:14:50.375Z,100992.56
2019-05-29T17:17:18.638Z,100998.62
2019-05-29T17:19:46.452Z,101009.43
2019-05-29T17:22:14.558Z,101009.43
2019-05-29T17:24:42.385Z,101012.28
2019-05-29T17:27:10.158Z,101016.48
2019-05-29T17:29:37.840Z,101013.75
2019-05-29T17:32:05.604Z,101013.75
2019-05-29T17:34:33.275Z,101013.41
2019-05-29T17:37:00.957Z,101021.92
2019-05-29T17:39:28.667Z,101018.84
2019-05-29T17:41:56.328Z,101016.66
2019-05-29T17:44:23.996Z,101019.36
2019-05-29T17:46:51.751Z,101024.04
2019-05-29T17:49:22.589Z,101021.03
2019-05-29T17:51:49.241Z,101022.88
2019-05-29T17:54:17.888Z,101025.96
2019-05-29T17:56:45.672Z,101032.48
2019-05-29T17:59:13.336Z,101040.08
2019-05-29T18:01:40.989Z,101044.17
2019-05-29T18:04:09.145Z,101052.71
2019-05-29T18:06:36.792Z,101046.95
2019-05-29T18:09:05.548Z,101044.30
2019-05-29T18:11:33.196Z,101049.68
2019-05-29T18:14:05.073Z,101048.55
2019-05-29T18:16:30.238Z,101055.48
2019-05-29T18:18:57.893Z,101058.92
2019-05-29T18:21:25.799Z,101058.92
2019-05-29T18:23:53.755Z,101057.30
2019-05-29T18:26:22.047Z,101067.59
2019-05-29T18:28:49.781Z,101070.05
2019-05-29T18:31:18.348Z,101065.97
2019-05-29T18:33:46.632Z,101070.24
2019-05-29T18:36:14.283Z,101076.64
2019-05-29T18:38:41.939Z,101075.28
2019-05-29T18:41:09.648Z,101075.14
2019-05-29T18:43:38.340Z,101078.72
2019-05-29T18:46:06.022Z,101080.59
2019-05-29T18:48:33.729Z,101077.53
2019-05-29T18:51:01.385Z,101077.62
2019-05-29T18:53:29.113Z,101082.66
2019-05-29T18:55:56.768Z,101095.53
2019-05-29T18:58:24.439Z,101099.42
2019-05-29T19:00:52.276Z,101099.42
2019-05-29T19:03:21.285Z,101097.14
2019-05-29T19:05:49.088Z,101101.41
2019-05-29T19:08:16.747Z,101116.69
2019-05-29T19:10:44.403Z,101112.78
2019-05-29T19:13:12.070Z,101123.69
2019-05-29T19:15:39.723Z,101114.84
2019-05-29T19:18:07.364Z,101125.58
2019-05-29T19:20:35.152Z,101122.08
2019-05-29T19:23:03.009Z,101125.23
2019-05-29T19:25:30.898Z,101141.78
2019-05-29T19:27:58.730Z,101141.78
2019-05-29T19:30:26.893Z,101143.28
2019-05-29T19:32:54.806Z,101150.14
2019-05-29T19:35:23.519Z,101147.45
2019-05-29T19:37:51.481Z,101157.73
2019-05-29T19:40:19.443Z,101160.23
2019-05-29T19:42:47.267Z,101161.14
2019-05-29T19:45:15.406Z,101167.30
2019-05-29T19:47:43.061Z,101168.25
2019-05-29T19:50:11.626Z,101173.88
2019-05-29T19:52:39.463Z,101171.95
2019-05-29T19:55:07.166Z,101173.81
2019-05-29T19:57:53.916Z,101183.13
2019-05-29T20:00:04.624Z,101189.12
2019-05-29T20:02:32.719Z,101195.66
2019-05-29T20:05:00.515Z,101195.75
2019-05-29T20:07:28.967Z,101193.15
2019-05-29T20:09:56.690Z,101193.15
2019-05-29T20:12:24.346Z,101205.59
2019-05-29T20:14:51.996Z,101205.39
2019-05-29T20:17:19.662Z,101207.11
2019-05-29T20:19:47.311Z,101216.77
2019-05-29T20:22:14.971Z,101215.36
2019-05-29T20:24:42.644Z,101220.53
2019-05-29T20:27:10.297Z,101221.56
2019-05-29T20:29:38.536Z,101226.66
2019-05-29T20:32:06.488Z,101225.44
2019-05-29T20:34:34.682Z,101225.17
2019-05-29T20:37:02.428Z,101230.67
2019-05-29T20:39:30.239Z,101233.84
2019-05-29T20:41:58.035Z,101238.73
2019-05-29T20:44:25.811Z,101239.48
2019-05-29T20:46:53.528Z,101243.77
2019-05-29T20:49:21.177Z,101245.12
2019-05-29T20:51:48.843Z,101243.83
2019-05-29T20:54:16.499Z,101252.41
2019-05-29T20:56:44.157Z,101245.06
2019-05-29T20:59:11.803Z,101251.29
2019-05-29T21:01:44.226Z,101260.17
2019-05-29T21:04:08.869Z,101252.75
2019-05-29T21:06:36.630Z,101261.63
2019-05-29T21:09:04.901Z,101256.27
2019-05-29T21:11:33.325Z,101266.02
2019-05-29T21:14:01.105Z,101266.02
2019-05-29T21:16:28.747Z,101271.21
2019-05-29T21:18:56.404Z,101265.65
2019-05-29T21:21:24.063Z,101266.63
2019-05-29T21:23:51.707Z,101265.79
2019-05-29T21:26:19.368Z,101271.27
2019-05-29T21:28:50.681Z,101266.14
2019-05-29T21:31:16.400Z,101273.33
2019-05-29T21:33:47.308Z,101282.77
2019-05-29T21:36:13.491Z,101279.20
2019-05-29T21:38:42.222Z,101285.20
2019-05-29T21:41:10.074Z,101285.75
2019-05-29T21:43:38.616Z,101289.83
2019-05-29T21:46:06.459Z,101291.95
2019-05-29T21:48:34.195Z,101295.59
2019-05-29T21:51:01.843Z,101298.25
2019-05-29T21:53:29.510Z,101300.06
2019-05-29T21:55:57.163Z,101298.30
2019-05-29T21:58:24.861Z,101301.06
2019-05-29T22:00:53.041Z,101306.30
2019-05-29T22:03:20.696Z,101314.75
2019-05-29T22:05:48.855Z,101318.88
2019-05-29T22:08:16.616Z,101315.55
2019-05-29T22:10:44.285Z,101318.49
2019-05-29T22:13:11.943Z,101322.18
2019-05-29T22:15:39.595Z,101321.82
2019-05-29T22:18:07.248Z,101321.22
2019-05-29T22:20:34.896Z,101323.33
2019-05-29T22:23:02.974Z,101324.09
2019-05-29T22:25:34.260Z,101317.45
2019-05-29T22:28:01.635Z,101321.63
2019-05-29T22:30:29.582Z,101322.44
2019-05-29T22:32:57.499Z,101328.50
2019-05-29T22:35:25.198Z,101326.05
2019-05-29T22:37:53.498Z,101335.66
2019-05-29T22:40:21.401Z,101330.36
2019-05-29T22:42:49.057Z,101334.66
2019-05-29T22:45:16.720Z,101334.80
2019-05-29T22:47:44.396Z,101336.76
2019-05-29T22:50:12.057Z,101334.41
2019-05-29T22:52:39.708Z,101328.80
2019-05-29T22:55:07.384Z,101333.17
2019-05-29T22:57:35.022Z,101343.74
2019-05-29T23:00:02.684Z,101333.64
2019-05-29T23:02:30.328Z,101341.27
2019-05-29T23:04:58.453Z,101345.20
2019-05-29T23:07:26.325Z,101336.34
2019-05-29T23:09:54.342Z,101340.60
2019-05-29T23:12:22.177Z,101337.17
2019-05-29T23:14:49.824Z,101334.44
2019-05-29T23:17:17.474Z,101344.19
2019-05-29T23:19:45.130Z,101345.75
2019-05-29T23:22:12.791Z,101347.81
2019-05-29T23:24:40.666Z,101356.86
2019-05-29T23:27:08.303Z,101351.66
2019-05-29T23:29:48.451Z,101358.30
2019-05-29T23:32:05.431Z,101354.33
2019-05-29T23:34:33.083Z,101361.09
2019-05-29T23:37:01.312Z,101357.59
2019-05-29T23:39:29.368Z,101361.82
2019-05-29T23:41:57.286Z,101359.67
2019-05-29T23:44:25.065Z,101361.16
2019-05-29T23:46:53.356Z,101358.50
2019-05-29T23:49:21.089Z,101354.84
2019-05-29T23:51:48.743Z,101354.98
2019-05-29T23:54:16.641Z,101349.97
2019-05-29T23:56:44.369Z,101356.15
2019-05-29T23:59:12.020Z,101349.19
